KELK/ELK METAR and TAF weather

Enter ICAO airport designator
Station Type Date Time Source
KELK METAR 2021/02/28 03:55 UTC NOAA

KELK 280355Z AUTO 18014KT 7SM OVC003 15/15 A2975 RMK AO2 T01510151


Station Type Date Time Source
KELK Decoded METAR 2021/02/28 03:55 UTC NOAA

Station name not available
Feb 27, 2021 - 10:55 PM EST / 2021.02.28 0355 UTC
Wind: from the S (180 degrees) at 16 MPH (14 KT):0
Visibility: 7 mile(s):0
Sky conditions: overcast
Temperature: 59.2 F (15.1 C)
Dew Point: 59.2 F (15.1 C)
Relative Humidity: 100%
Pressure (altimeter): 29.75 in. Hg (1007 hPa)
ob: KELK 280355Z AUTO 18014KT 7SM OVC003 15/15 A2975 RMK AO2 T01510151
cycle: 4

Station Type Date Time Source
KELK TAF UTC NOAA

Error!

Example: see airport list